Huvudsida
METAR-TAF:

METAR-TAF

Flygplatser :

Curaçaos internationella flygplats

Curaçao, Nederländska Antillerna

latitud: 12-12N, longitud: 068-58W, höjd: 9 m

Aktuellt väderrapport

Denna rapport gjordes för 21 minuter sedan, klockan 00:00 UTC
Vind 9 kt från ost/nordost
Temperatur 28°C
Fuktighet 74%
Tryck 1009 hPa
Sikt 10 km eller mer
Få moln på en höjd av 1800 ft

METAR: TNCC 190000Z 06009KT 9999 FEW018 28/23 Q1009 NOSIG

Tid: 20:21 (00:21 UTC)

Väderprognos

Denna rapport gjordes för 1 timme och 6 minuter sedan, klockan 23:15 UTC
Prognos gäller från 19 kl. 00 UTC till 19 kl. 24 UTC
Vind 8 kt från ost
Sikt 10 km eller mer
Få moln på en höjd av 2200 ft

TAF: TNCC 182315Z 1900/1924 08008KT 9999 FEW022

Aktuella väderrapporter och prognoser från 4000 flygplatser (METAR- och TAF-rapporter).

De tillgängliga stationerna syns som gula och röda prickar på kartan.

För musen över prickarna för att se namnen på stationerna.

Klicka sedan för att få väderrapporter och prognoser.

För att ändra kartan: Klicka på de gröna knapparna med ett svart kors på för att zooma in; den gröna knappen med ett streck på för att zooma ut; eller på de gröna pilarna för angränsande kartor.


METAR-TAF: